Time;durP1;ratioP1;P1;durP2;ratioP2;P2;SDS_P1;SDS_P2;PMS_P1;PMS_P2;Temp;Humidity;BMP_temperature;BMP_pressure;BME280_temperature;BME280_humidity;BME280_pressure;Samples;Min_cycle;Max_cycle;Signal;HPM_P1;HPM_P2
2021/11/16 00:01:20;;;;;;;80.57;43.08;;;;;;;5.52;100.00;101902.25;4985149;28;20065;-67
2021/11/16 00:03:47;;;;;;;72.38;42.05;;;;;;;5.54;100.00;101902.22;4990736;28;20157;-67
2021/11/16 00:06:14;;;;;;;80.72;43.17;;;;;;;5.55;100.00;101901.34;4995718;28;20414;-69
2021/11/16 00:08:41;;;;;;;81.47;42.63;;;;;;;5.58;100.00;101902.16;4987778;28;20042;-67
2021/11/16 00:11:09;;;;;;;81.60;42.85;;;;;;;5.56;100.00;101903.91;5004697;28;20504;-68
2021/11/16 00:13:36;;;;;;;78.20;42.55;;;;;;;5.51;100.00;101903.13;4986658;28;20057;-68
2021/11/16 00:16:04;;;;;;;78.90;41.50;;;;;;;5.54;100.00;101897.00;4983384;28;20048;-69
2021/11/16 00:18:32;;;;;;;81.10;43.05;;;;;;;5.59;100.00;101901.25;4982027;28;20077;-70
2021/11/16 00:21:00;;;;;;;75.00;39.78;;;;;;;5.57;100.00;101899.53;4989023;28;20509;-67
2021/11/16 00:23:34;;;;;;;78.38;42.92;;;;;;;5.62;100.00;101899.47;4984537;28;20075;-69
2021/11/16 00:26:06;;;;;;;75.88;41.08;;;;;;;5.57;100.00;101903.00;4987493;28;20153;-69
2021/11/16 00:28:33;;;;;;;82.25;43.45;;;;;;;5.54;100.00;101905.69;4988790;28;20053;-68
2021/11/16 00:31:01;;;;;;;78.60;42.88;;;;;;;5.53;100.00;101914.41;4969623;28;20054;-68
2021/11/16 00:33:30;;;;;;;77.78;41.80;;;;;;;5.52;100.00;101907.47;5002537;28;20052;-69
2021/11/16 00:35:58;;;;;;;76.20;42.70;;;;;;;5.55;100.00;101910.03;4986936;28;20137;-69
2021/11/16 00:38:26;;;;;;;84.15;44.75;;;;;;;5.57;100.00;101915.22;5000157;28;20050;-68
2021/11/16 00:40:54;;;;;;;78.25;43.25;;;;;;;5.56;100.00;101905.66;5002091;28;20057;-66
2021/11/16 00:43:22;;;;;;;74.50;41.65;;;;;;;5.55;100.00;101910.03;4986903;28;20391;-69
2021/11/16 00:45:49;;;;;;;81.75;45.67;;;;;;;5.52;100.00;101915.28;5002616;28;20053;-68
2021/11/16 00:48:20;;;;;;;83.78;45.30;;;;;;;5.49;100.00;101910.16;4977124;28;20135;-67
2021/11/16 00:50:49;;;;;;;77.78;43.95;;;;;;;5.50;100.00;101909.25;4989325;28;20058;-68
2021/11/16 00:53:16;;;;;;;80.60;44.35;;;;;;;5.52;100.00;101912.69;4989208;28;20049;-67
2021/11/16 00:55:43;;;;;;;81.03;44.65;;;;;;;5.48;100.00;101905.78;4966009;28;20056;-68
2021/11/16 00:58:11;;;;;;;78.97;45.03;;;;;;;5.50;100.00;101911.00;4986528;28;20057;-70
2021/11/16 01:00:39;;;;;;;80.53;45.22;;;;;;;5.53;100.00;101898.72;5000896;28;20050;-68
2021/11/16 01:03:06;;;;;;;85.95;45.70;;;;;;;5.53;100.00;101896.13;5016958;28;20054;-67
2021/11/16 01:05:33;;;;;;;82.30;42.92;;;;;;;5.50;100.00;101888.34;5000642;28;20046;-69
2021/11/16 01:08:00;;;;;;;82.20;44.28;;;;;;;5.49;100.00;101889.25;5009001;28;20054;-67
2021/11/16 01:10:28;;;;;;;85.03;45.63;;;;;;;5.42;100.00;101884.16;5001442;28;20050;-67
2021/11/16 01:12:55;;;;;;;81.55;46.95;;;;;;;5.44;100.00;101884.97;4991216;28;20054;-68
2021/11/16 01:15:22;;;;;;;82.22;44.85;;;;;;;5.43;100.00;101871.06;5001892;28;20050;-67
2021/11/16 01:17:50;;;;;;;82.53;46.50;;;;;;;5.44;100.00;101872.78;5007267;28;20052;-69
2021/11/16 01:20:20;;;;;;;81.25;47.47;;;;;;;5.43;100.00;101873.66;4987809;28;20057;-71
2021/11/16 01:22:53;;;;;;;84.22;44.83;;;;;;;5.44;100.00;101870.16;5008949;28;20045;-69
2021/11/16 01:25:21;;;;;;;82.50;46.30;;;;;;;5.49;100.00;101880.53;4981165;28;20042;-67
2021/11/16 01:27:48;;;;;;;85.55;45.47;;;;;;;5.46;100.00;101871.00;4992534;28;20054;-67
2021/11/16 01:30:20;;;;;;;88.85;46.85;;;;;;;5.50;100.00;101869.22;4986553;28;20054;-70
2021/11/16 01:33:01;;;;;;;85.15;44.58;;;;;;;5.49;100.00;101865.75;5008880;28;20057;-71
2021/11/16 01:35:30;;;;;;;81.63;43.55;;;;;;;5.51;100.00;101863.09;4989904;28;20046;-67
2021/11/16 01:37:57;;;;;;;89.95;46.20;;;;;;;5.50;100.00;101857.00;4986160;28;20050;-69
2021/11/16 01:40:25;;;;;;;83.80;44.95;;;;;;;5.51;100.00;101868.31;5003482;28;20057;-67
2021/11/16 01:42:53;;;;;;;79.80;46.22;;;;;;;5.50;100.00;101862.25;4973505;28;20123;-67
2021/11/16 01:45:22;;;;;;;76.93;43.25;;;;;;;5.53;100.00;101863.91;4972657;28;20046;-69
2021/11/16 01:47:49;;;;;;;87.18;45.13;;;;;;;5.38;100.00;101852.00;5005825;28;20422;-67
2021/11/16 01:50:19;;;;;;;80.93;43.72;;;;;;;5.37;100.00;101852.91;4969718;28;20054;-71
2021/11/16 01:52:47;;;;;;;82.00;44.83;;;;;;;5.38;100.00;101851.13;4980606;28;20057;-69
2021/11/16 01:55:17;;;;;;;83.95;47.33;;;;;;;5.41;100.00;101854.56;4988284;28;20437;-68
2021/11/16 01:57:44;;;;;;;86.85;46.00;;;;;;;5.40;100.00;101855.44;4989157;28;20057;-68
2021/11/16 02:00:16;;;;;;;80.00;45.60;;;;;;;5.34;100.00;101848.56;4985386;28;20065;-67
2021/11/16 02:02:43;;;;;;;79.78;43.72;;;;;;;5.34;100.00;101851.19;4987891;28;20422;-67
2021/11/16 02:05:11;;;;;;;85.97;45.65;;;;;;;5.29;100.00;101846.94;4997166;28;20566;-68
2021/11/16 02:07:48;;;;;;;86.82;47.28;;;;;;;5.25;100.00;101840.91;4987664;28;20054;-69
2021/11/16 02:10:16;;;;;;;78.85;45.88;;;;;;;5.31;100.00;101847.75;5006845;28;20050;-68
2021/11/16 02:12:43;;;;;;;82.22;46.65;;;;;;;5.36;100.00;101845.97;5007676;28;20054;-71
2021/11/16 02:15:10;;;;;;;86.47;48.58;;;;;;;5.32;100.00;101842.53;5000991;28;20053;-68
2021/11/16 02:17:38;;;;;;;82.47;46.67;;;;;;;5.31;100.00;101837.31;4987360;28;20050;-69
2021/11/16 02:20:07;;;;;;;85.18;46.42;;;;;;;5.34;100.00;101834.66;4999376;28;20067;-69
2021/11/16 02:22:34;;;;;;;74.57;44.40;;;;;;;5.36;100.00;101827.69;4994698;28;20053;-68
2021/11/16 02:25:01;;;;;;;85.90;48.70;;;;;;;5.36;100.00;101832.91;4991960;28;20065;-68
2021/11/16 02:27:28;;;;;;;83.72;46.03;;;;;;;5.38;100.00;101831.09;5003929;28;20050;-68
2021/11/16 02:29:56;;;;;;;79.25;45.72;;;;;;;5.37;100.00;101829.41;5006580;28;20053;-68
2021/11/16 02:32:23;;;;;;;79.88;46.72;;;;;;;5.32;100.00;101829.47;4989964;28;20064;-67
2021/11/16 02:34:50;;;;;;;85.60;46.15;;;;;;;5.31;100.00;101826.88;4970980;28;20378;-68
2021/11/16 02:37:17;;;;;;;79.20;45.92;;;;;;;5.32;100.00;101819.03;4985834;28;21103;-66
2021/11/16 02:39:44;;;;;;;84.20;46.30;;;;;;;5.33;100.00;101820.75;4986335;28;20072;-67
2021/11/16 02:42:12;;;;;;;84.07;44.63;;;;;;;5.35;100.00;101810.25;5003365;28;20057;-66
2021/11/16 02:44:41;;;;;;;85.68;46.17;;;;;;;5.37;100.00;101805.03;4982212;28;20050;-66
2021/11/16 02:47:09;;;;;;;76.40;44.75;;;;;;;5.43;100.00;101802.31;4978874;28;20363;-65
2021/11/16 02:49:36;;;;;;;81.90;46.67;;;;;;;5.44;100.00;101807.47;4987682;28;21004;-69
2021/11/16 02:52:12;;;;;;;88.47;46.47;;;;;;;5.44;100.00;101804.88;5005178;28;20063;-66
2021/11/16 02:54:40;;;;;;;79.90;44.75;;;;;;;5.44;100.00;101802.25;4986020;28;20141;-67
2021/11/16 02:57:09;;;;;;;74.53;43.90;;;;;;;5.46;100.00;101800.50;4974511;28;20154;-66
2021/11/16 02:59:37;;;;;;;78.13;44.58;;;;;;;5.43;100.00;101797.94;4991738;28;20406;-66
2021/11/16 03:02:05;;;;;;;78.95;44.75;;;;;;;5.39;100.00;101787.56;4999375;28;20129;-66
2021/11/16 03:04:33;;;;;;;81.97;46.00;;;;;;;5.37;100.00;101791.97;4989884;28;20076;-66
2021/11/16 03:07:02;;;;;;;75.07;42.63;;;;;;;5.33;100.00;101789.41;5004343;28;20058;-68
2021/11/16 03:09:30;;;;;;;85.82;47.83;;;;;;;5.29;100.00;101797.34;4985793;28;20050;-68
2021/11/16 03:11:58;;;;;;;81.10;45.13;;;;;;;5.31;100.00;101791.22;4998016;28;20271;-69
2021/11/16 03:14:27;;;;;;;85.47;47.30;;;;;;;5.26;100.00;101803.47;4980879;28;20046;-67
2021/11/16 03:16:55;;;;;;;81.28;45.35;;;;;;;5.28;100.00;101793.88;4985464;28;20060;-66
2021/11/16 03:19:23;;;;;;;76.68;45.15;;;;;;;5.30;100.00;101797.28;4979323;28;20068;-69
2021/11/16 03:21:58;;;;;;;81.10;43.67;;;;;;;5.27;100.00;101792.16;4988436;28;20042;-66
2021/11/16 03:24:29;;;;;;;80.25;46.22;;;;;;;5.28;100.00;101793.00;5001004;28;20106;-67
2021/11/16 03:26:56;;;;;;;80.75;45.92;;;;;;;5.22;100.00;101787.88;5004745;28;20068;-66
2021/11/16 03:29:25;;;;;;;79.55;46.25;;;;;;;5.31;100.00;101788.59;4977743;28;20061;-66
2021/11/16 03:32:04;;;;;;;81.05;46.53;;;;;;;5.27;100.00;101792.16;5005118;28;20203;-68
2021/11/16 03:34:32;;;;;;;78.28;44.92;;;;;;;5.22;100.00;101787.88;4973762;28;20149;-68
2021/11/16 03:36:59;;;;;;;85.20;44.97;;;;;;;5.24;100.00;101778.28;4985568;28;20434;-65
2021/11/16 03:39:27;;;;;;;80.97;45.47;;;;;;;5.22;100.00;101777.44;4999022;28;20053;-68
2021/11/16 03:41:54;;;;;;;84.88;46.00;;;;;;;5.23;100.00;101773.97;5001152;28;20046;-68
2021/11/16 03:44:22;;;;;;;81.40;46.50;;;;;;;5.24;100.00;101770.47;5013231;28;20054;-65
2021/11/16 03:46:49;;;;;;;81.45;45.00;;;;;;;5.27;100.00;101765.19;5003732;28;20064;-66
2021/11/16 03:49:17;;;;;;;75.68;43.88;;;;;;;5.21;100.00;101768.75;4998203;28;20050;-69
2021/11/16 03:51:45;;;;;;;81.63;42.92;;;;;;;5.19;100.00;101775.75;4969196;28;20034;-67
2021/11/16 03:54:14;;;;;;;78.57;44.53;;;;;;;5.21;100.00;101780.94;4997390;28;20050;-68
2021/11/16 03:56:45;;;;;;;77.00;44.00;;;;;;;5.23;100.00;101769.59;4976717;23;20042;31
2021/11/16 03:59:12;;;;;;;79.38;43.95;;;;;;;5.25;100.00;101773.03;4980287;28;20073;-61
2021/11/16 04:01:39;;;;;;;75.18;42.53;;;;;;;5.27;100.00;101766.03;4986528;28;20069;-62
2021/11/16 04:04:07;;;;;;;79.15;44.20;;;;;;;5.24;100.00;101754.78;4987727;28;20050;-62
2021/11/16 04:06:34;;;;;;;77.32;45.17;;;;;;;5.21;100.00;101758.31;4987830;28;20054;-61
2021/11/16 04:09:03;;;;;;;83.75;45.20;;;;;;;5.22;100.00;101748.72;4966047;28;20070;-62
2021/11/16 04:11:30;;;;;;;78.28;45.13;;;;;;;5.22;100.00;101751.34;4970290;28;20062;-60
2021/11/16 04:13:57;;;;;;;83.53;46.30;;;;;;;5.21;100.00;101747.00;4970652;28;20547;-62
2021/11/16 04:16:25;;;;;;;80.53;43.42;;;;;;;5.22;100.00;101752.22;4969947;28;20058;-62
2021/11/16 04:18:53;;;;;;;79.47;42.45;;;;;;;5.21;100.00;101744.41;4969949;28;20069;-62
2021/11/16 04:21:20;;;;;;;82.85;43.40;;;;;;;5.19;100.00;101743.56;4973052;28;20061;-62
2021/11/16 04:23:47;;;;;;;79.18;44.58;;;;;;;5.14;100.00;101753.25;4971512;28;20055;-62
2021/11/16 04:26:15;;;;;;;83.13;45.92;;;;;;;5.14;100.00;101748.88;4972366;28;20063;-61
2021/11/16 04:28:42;;;;;;;88.15;45.55;;;;;;;5.16;100.00;101743.63;4971574;28;20161;-62
2021/11/16 04:31:09;;;;;;;88.68;46.85;;;;;;;5.16;100.00;101744.47;4970963;28;20051;-61
2021/11/16 04:33:38;;;;;;;80.55;43.53;;;;;;;5.17;100.00;101735.75;4971744;28;20063;-61
2021/11/16 04:36:05;;;;;;;79.60;44.83;;;;;;;5.23;100.00;101730.44;4972843;28;20062;-61
2021/11/16 04:38:33;;;;;;;81.97;43.22;;;;;;;5.23;100.00;101730.44;4972461;28;20074;-61
2021/11/16 04:41:01;;;;;;;88.00;44.63;;;;;;;5.22;100.00;101731.34;4971788;28;20070;-61
2021/11/16 04:43:30;;;;;;;85.68;46.28;;;;;;;5.16;100.00;101718.38;4969471;28;20067;-61
2021/11/16 04:46:03;;;;;;;82.93;44.67;;;;;;;5.17;100.00;101727.91;4970312;28;20031;-61
2021/11/16 05:04:21;;;;;;;93.70;50.42;;;;;;;5.13;100.00;101722.78;4966932;28;20054;-60
2021/11/16 05:06:51;;;;;;;85.95;45.72;;;;;;;5.18;100.00;101716.63;4966010;28;20060;-61
2021/11/16 05:09:18;;;;;;;81.70;44.30;;;;;;;5.16;100.00;101720.13;4967213;28;20914;-58
2021/11/16 05:11:45;;;;;;;85.75;46.58;;;;;;;5.19;100.00;101717.47;4968420;28;20141;-62
2021/11/16 05:14:13;;;;;;;84.15;46.38;;;;;;;5.19;100.00;101715.72;4967769;28;20062;-62
2021/11/16 05:16:41;;;;;;;91.68;48.13;;;;;;;5.20;100.00;101721.78;4967068;28;20458;-62
2021/11/16 05:19:08;;;;;;;82.45;46.90;;;;;;;5.27;100.00;101728.63;4967873;28;20058;-61
2021/11/16 05:21:35;;;;;;;90.97;47.70;;;;;;;5.20;100.00;101738.31;4967820;28;20062;-61
2021/11/16 05:24:03;;;;;;;89.65;47.80;;;;;;;5.18;100.00;101729.66;4970439;28;20066;-61
2021/11/16 05:26:30;;;;;;;91.68;47.92;;;;;;;5.22;100.00;101720.00;4966495;28;20046;-62
2021/11/16 05:28:59;;;;;;;84.75;45.28;;;;;;;5.19;100.00;101722.69;4968287;28;20204;-60
2021/11/16 05:31:28;;;;;;;101.38;49.47;;;;;;;5.13;100.00;101725.41;4965431;28;20062;-61
2021/11/16 05:33:56;;;;;;;88.35;46.72;;;;;;;5.15;100.00;101724.50;4949731;28;20333;-61
2021/11/16 05:36:23;;;;;;;98.90;47.25;;;;;;;5.16;100.00;101726.22;4966576;28;20088;-60
2021/11/16 05:38:51;;;;;;;85.53;46.85;;;;;;;5.18;100.00;101729.66;4961289;28;20047;-61
2021/11/16 05:41:18;;;;;;;92.15;47.17;;;;;;;5.15;100.00;101739.31;4967889;28;20069;-61
2021/11/16 05:43:47;;;;;;;95.05;49.95;;;;;;;5.19;100.00;101739.22;4967044;28;20170;-62
2021/11/16 05:46:20;;;;;;;90.20;45.75;;;;;;;5.21;100.00;101734.81;4969320;28;20055;-61
2021/11/16 05:48:50;;;;;;;83.90;45.10;;;;;;;5.15;100.00;101729.72;4963468;28;20150;-63
2021/11/16 05:51:20;;;;;;;95.32;48.45;;;;;;;5.16;100.00;101730.56;4964418;28;20051;-62
2021/11/16 05:53:52;;;;;;;97.13;49.70;;;;;;;5.22;100.00;101727.84;4964457;28;20061;-62
2021/11/16 05:56:22;;;;;;;89.30;47.30;;;;;;;5.19;100.00;101726.16;4967355;28;20479;-61
2021/11/16 05:58:53;;;;;;;93.32;47.50;;;;;;;5.19;100.00;101730.53;4967237;28;20057;-60
2021/11/16 06:01:22;;;;;;;92.60;47.33;;;;;;;5.07;100.00;101732.47;4965759;28;20531;-61
2021/11/16 06:03:52;;;;;;;96.60;51.45;;;;;;;5.08;100.00;101734.16;4964436;28;20059;-61
2021/11/16 06:06:24;;;;;;;91.93;49.30;;;;;;;5.05;100.00;101731.63;4964110;28;20050;-61
2021/11/16 06:08:52;;;;;;;97.72;47.85;;;;;;;5.02;100.00;101739.50;4968303;28;20117;-62
2021/11/16 06:11:20;;;;;;;96.40;50.00;;;;;;;5.04;100.00;101734.25;4966700;28;20057;-61
2021/11/16 06:13:49;;;;;;;93.35;50.75;;;;;;;4.99;100.00;101743.91;4960384;28;20085;-61
2021/11/16 06:16:16;;;;;;;104.60;52.33;;;;;;;4.95;100.00;101740.50;4966473;28;20066;-62
2021/11/16 06:18:50;;;;;;;98.85;48.92;;;;;;;5.01;100.00;101736.94;4949110;28;20580;-61
2021/11/16 06:21:18;;;;;;;102.60;51.78;;;;;;;4.97;100.00;101745.72;4966103;28;20043;-61
2021/11/16 06:23:46;;;;;;;95.45;48.28;;;;;;;4.95;100.00;101752.69;4951228;28;20050;-61
2021/11/16 06:26:13;;;;;;;90.20;45.55;;;;;;;4.97;100.00;101753.53;4968644;28;20081;-61
2021/11/16 06:28:41;;;;;;;98.55;49.55;;;;;;;5.06;100.00;101748.16;4946362;28;20503;-62
2021/11/16 06:31:09;;;;;;;95.95;47.13;;;;;;;5.01;100.00;101757.81;4961369;28;20051;-61
2021/11/16 06:33:36;;;;;;;90.20;47.90;;;;;;;4.98;100.00;101750.03;4964006;28;20058;-62
2021/11/16 06:36:03;;;;;;;91.05;46.85;;;;;;;4.98;100.00;101758.72;4965740;28;20547;-62
2021/11/16 06:38:30;;;;;;;92.55;45.35;;;;;;;4.95;100.00;101766.59;4969454;28;20062;-62
2021/11/16 06:40:58;;;;;;;86.75;45.55;;;;;;;5.00;100.00;101763.94;4970894;28;20058;-62
2021/11/16 06:43:27;;;;;;;86.63;44.58;;;;;;;4.98;100.00;101758.72;4972478;28;20397;-62
2021/11/16 06:45:56;;;;;;;86.47;42.75;;;;;;;4.97;100.00;101762.22;4969649;28;20503;-62
2021/11/16 06:48:24;;;;;;;81.53;43.78;;;;;;;4.99;100.00;101770.88;4960653;28;20063;-62
2021/11/16 06:50:53;;;;;;;85.90;42.05;;;;;;;4.91;100.00;101778.00;4967759;28;20579;-61
2021/11/16 06:53:24;;;;;;;81.32;41.78;;;;;;;4.94;100.00;101777.06;4966647;28;20050;-61
2021/11/16 06:55:52;;;;;;;75.75;38.92;;;;;;;4.94;100.00;101775.31;4962550;28;20039;-62
2021/11/16 06:58:20;;;;;;;81.85;38.70;;;;;;;4.95;100.00;101777.03;4967361;28;20042;-60
2021/11/16 07:00:48;;;;;;;75.75;38.00;;;;;;;4.93;100.00;101778.81;4970488;28;20050;-63
2021/11/16 07:03:20;;;;;;;77.57;39.45;;;;;;;4.98;100.00;101779.59;4958218;28;20066;-62
2021/11/16 07:05:51;;;;;;;72.80;39.72;;;;;;;4.95;100.00;101778.78;4972501;28;20058;-62
2021/11/16 07:08:39;;;;;;;69.72;36.40;;;;;;;4.99;100.00;101780.47;4970809;28;20051;-64
2021/11/16 07:11:12;;;;;;;78.38;39.85;;;;;;;4.98;100.00;101777.00;4971451;28;20059;-63
2021/11/16 07:14:00;;;;;;;77.47;38.50;;;;;;;4.96;100.00;101775.31;4974118;28;20046;-62
2021/11/16 07:16:37;;;;;;;77.18;39.40;;;;;;;4.93;100.00;101781.44;4964476;28;20047;-62
2021/11/16 07:19:08;;;;;;;80.68;41.10;;;;;;;4.87;100.00;101785.91;4963435;28;20051;-63
2021/11/16 07:21:47;;;;;;;81.15;39.58;;;;;;;4.83;100.00;101777.25;4973484;28;20054;-63
2021/11/16 07:24:20;;;;;;;82.65;40.75;;;;;;;4.84;100.00;101784.19;4973972;28;20054;-62
2021/11/16 07:27:00;;;;;;;82.30;38.53;;;;;;;4.95;100.00;101784.84;4974383;28;20166;-58
2021/11/16 07:29:33;;;;;;;73.68;39.22;;;;;;;4.95;100.00;101791.84;4973185;28;20062;-59
2021/11/16 07:32:02;;;;;;;90.43;42.33;;;;;;;4.89;100.00;101786.72;4971333;28;20078;-59
2021/11/16 07:34:32;;;;;;;84.80;41.13;;;;;;;4.90;100.00;101786.69;4967232;28;21244;-61
2021/11/16 07:37:06;;;;;;;90.25;41.35;;;;;;;4.91;100.00;101782.34;4973801;28;20507;-62
2021/11/16 07:39:53;;;;;;;91.03;43.95;;;;;;;4.88;100.00;101785.00;4972160;28;20869;-61
2021/11/16 07:42:24;;;;;;;83.75;41.65;;;;;;;4.91;100.00;101784.94;4979032;28;20054;-60
2021/11/16 07:45:12;;;;;;;88.22;42.25;;;;;;;4.97;100.00;101782.25;4970883;28;20051;-62
2021/11/16 07:48:00;;;;;;;89.40;45.05;;;;;;;5.03;100.00;101779.53;4970365;28;20443;-61
2021/11/16 07:50:30;;;;;;;87.88;43.28;;;;;;;5.09;100.00;101761.16;4962532;28;20542;-61
2021/11/16 07:53:18;;;;;;;86.63;42.65;;;;;;;5.29;100.00;101748.59;4974208;28;20503;-60
2021/11/16 07:56:12;;;;;;;85.68;41.85;;;;;;;5.38;100.00;101742.31;4968909;28;20058;-61
2021/11/16 07:58:47;;;;;;;89.63;43.28;;;;;;;5.57;100.00;101746.28;4968800;28;20051;-59
2021/11/16 08:01:35;;;;;;;94.43;45.10;;;;;;;5.54;100.00;101740.28;4974487;28;20138;-62
2021/11/16 08:07:06;;;;;;;88.40;42.55;;;;;;;5.72;100.00;101728.56;4971901;28;20050;-62
2021/11/16 08:14:56;;;;;;;85.28;43.15;;;;;;;5.96;100.00;101720.25;4975833;28;20575;-62
2021/11/16 08:17:25;;;;;;;91.88;43.90;;;;;;;6.01;100.00;101720.16;4976086;28;20101;-61
2021/11/16 08:19:57;;;;;;;77.80;40.83;;;;;;;6.08;100.00;101726.97;4964287;28;20105;-62
2021/11/16 08:22:24;;;;;;;92.72;42.40;;;;;;;6.18;100.00;101720.63;4979025;28;20058;-60
2021/11/16 08:24:54;;;;;;;88.90;43.33;;;;;;;6.23;100.00;101718.75;4973022;28;20051;-62
2021/11/16 08:27:25;;;;;;;83.47;42.80;;;;;;;6.30;100.00;101717.72;4978965;28;20054;-62
2021/11/16 08:29:59;;;;;;;91.03;41.10;;;;;;;6.33;100.00;101719.41;4948147;28;20055;-62
2021/11/16 08:32:34;;;;;;;89.13;43.65;;;;;;;6.34;100.00;101715.88;4973347;28;20050;-61
2021/11/16 08:35:16;;;;;;;81.47;41.92;;;;;;;6.43;100.00;101705.19;4983180;28;20051;-60
2021/11/16 08:37:44;;;;;;;82.07;40.33;;;;;;;6.52;100.00;101704.09;4973895;28;20665;-62
2021/11/16 08:40:17;;;;;;;91.82;41.08;;;;;;;6.57;100.00;101707.47;4976879;28;20047;-62
2021/11/16 08:42:54;;;;;;;85.38;41.35;;;;;;;6.62;100.00;101702.13;4976921;28;20055;-62
2021/11/16 08:45:27;;;;;;;88.78;43.30;;;;;;;6.67;100.00;101697.66;4971189;28;20510;-62
2021/11/16 08:48:16;;;;;;;88.97;44.22;;;;;;;6.85;100.00;101700.66;4976776;28;20053;-62
2021/11/16 08:51:11;;;;;;;128.93;70.28;;;;;;;6.87;100.00;101690.13;4972691;28;20061;-62
2021/11/16 08:53:40;;;;;;;82.00;41.10;;;;;;;6.82;100.00;101692.88;4969093;28;20526;-63
2021/11/16 08:56:13;;;;;;;95.68;44.88;;;;;;;6.95;100.00;101695.16;4970522;28;20054;-62
2021/11/16 08:59:12;;;;;;;84.28;41.88;;;;;;;7.12;100.00;101685.09;4973292;28;20061;-63
2021/11/16 09:01:40;;;;;;;83.45;42.88;;;;;;;7.28;100.00;101696.00;4978249;28;20495;-64
2021/11/16 09:04:08;;;;;;;83.25;41.95;;;;;;;7.48;99.73;101684.97;4973061;28;20066;-62
2021/11/16 09:06:39;;;;;;;80.97;40.67;;;;;;;7.61;98.62;101688.94;4978718;28;20055;-63
2021/11/16 09:09:11;;;;;;;84.45;41.58;;;;;;;7.85;97.33;101687.34;4970850;28;20055;-63
2021/11/16 09:11:38;;;;;;;86.82;44.90;;;;;;;8.01;95.96;101691.19;4977340;28;20530;-62
2021/11/16 09:14:13;;;;;;;85.05;42.92;;;;;;;8.03;95.04;101693.78;4978644;28;20528;-63
2021/11/16 09:16:43;;;;;;;78.20;37.90;;;;;;;8.00;95.14;101691.25;4979388;28;20672;-59
2021/11/16 09:19:29;;;;;;;84.43;40.85;;;;;;;8.19;95.07;101694.13;4972306;28;20047;-61
2021/11/16 09:21:57;;;;;;;;;;;;;;;8.13;93.66;101688.19;4973171;28;20051;-60
2021/11/16 09:24:33;;;;;;;83.57;40.90;;;;;;;8.05;94.15;101692.81;4970501;28;19925;-59
2021/11/16 09:29:40;;;;;;;95.28;47.75;;;;;;;7.97;93.48;101684.34;4972130;28;20054;-63
2021/11/16 09:32:10;;;;;;;95.35;53.65;;;;;;;7.95;94.39;101688.75;4971776;28;20539;-63
2021/11/16 09:34:41;;;;;;;83.72;40.97;;;;;;;7.92;94.71;101683.59;4974061;28;20050;-61
2021/11/16 09:37:15;;;;;;;83.07;38.78;;;;;;;8.10;95.54;101677.81;4970736;28;20051;-63
2021/11/16 09:39:50;;;;;;;72.43;39.22;;;;;;;8.33;93.70;101669.19;4974862;28;20055;-63
2021/11/16 09:42:29;;;;;;;73.53;37.65;;;;;;;8.53;92.63;101668.53;4974376;28;20066;-62
2021/11/16 09:45:03;;;;;;;75.05;38.70;;;;;;;8.52;91.65;101666.00;4964249;28;20051;-61
2021/11/16 09:47:36;;;;;;;75.65;38.10;;;;;;;8.44;92.02;101663.59;4969146;28;20038;-59
2021/11/16 09:50:05;;;;;;;75.22;38.22;;;;;;;8.56;90.59;101660.59;4969139;28;20420;-61
2021/11/16 09:52:41;;;;;;;71.35;36.67;;;;;;;8.53;91.29;101658.06;4975692;28;20064;-61
2021/11/16 09:55:15;;;;;;;71.65;37.53;;;;;;;8.58;90.76;101657.88;4956372;28;20054;-61
2021/11/16 09:57:44;;;;;;;75.25;38.97;;;;;;;8.66;90.13;101655.00;4980444;28;20089;-58
2021/11/16 10:00:13;;;;;;;70.15;36.67;;;;;;;8.45;90.51;101660.06;4945366;28;20066;-60
2021/11/16 10:02:43;;;;;;;73.93;36.03;;;;;;;8.51;90.91;101651.13;4966133;28;20526;-60
2021/11/16 10:05:19;;;;;;;70.15;38.88;;;;;;;8.48;91.12;101659.97;4967608;28;20055;-60
2021/11/16 10:08:06;;;;;;;73.57;38.22;;;;;;;8.42;91.06;101659.31;4971964;28;20057;-59
2021/11/16 10:10:36;;;;;;;72.10;39.88;;;;;;;8.40;90.79;101654.13;4974558;28;20046;-61
2021/11/16 10:13:08;;;;;;;74.70;40.85;;;;;;;8.43;91.03;101659.28;4973693;28;20053;-61
2021/11/16 10:15:37;;;;;;;75.03;39.58;;;;;;;8.34;90.77;101656.94;4972441;28;20050;-62
2021/11/16 10:18:04;;;;;;;76.82;39.05;;;;;;;8.36;91.30;101653.34;4973276;28;20104;-62
2021/11/16 10:20:34;;;;;;;74.57;37.42;;;;;;;8.43;90.63;101654.03;4974310;28;20047;-61
2021/11/16 10:23:17;;;;;;;70.85;36.30;;;;;;;8.47;90.15;101649.53;4978524;28;20050;-62
2021/11/16 10:25:53;;;;;;;68.68;38.15;;;;;;;8.33;90.35;101649.94;4970055;28;20411;-61
2021/11/16 10:28:21;;;;;;;;;;;;;;;8.32;91.10;101645.59;4970589;28;20065;-62
2021/11/16 10:30:48;;;;;;;71.15;35.92;;;;;;;8.39;89.86;101635.81;4972976;28;19922;-61
2021/11/16 10:33:23;;;;;;;67.35;35.97;;;;;;;8.34;90.32;101644.66;4978993;28;20054;-62
2021/11/16 10:35:57;;;;;;;74.70;38.00;;;;;;;8.29;90.72;101635.25;4970924;28;20532;-62
2021/11/16 10:38:27;;;;;;;72.10;38.92;;;;;;;8.30;91.17;101632.56;4977729;28;20905;-62
2021/11/16 10:40:59;;;;;;;71.60;37.90;;;;;;;8.44;90.19;101628.66;4970622;28;20046;-62
2021/11/16 10:43:44;;;;;;;71.40;37.97;;;;;;;8.56;90.26;101621.22;4977497;28;20992;-62
2021/11/16 10:46:12;;;;;;;77.30;38.88;;;;;;;8.73;89.10;101610.09;4970949;28;20054;-61
2021/11/16 10:48:39;;;;;;;74.15;38.00;;;;;;;8.99;88.14;101606.53;4973470;28;20073;-61
2021/11/16 10:51:09;;;;;;;78.70;38.58;;;;;;;9.10;88.10;101607.03;4971422;28;20057;-62
2021/11/16 10:53:36;;;;;;;66.38;35.40;;;;;;;9.50;86.95;101607.25;4974495;28;20051;-62
2021/11/16 10:56:05;;;;;;;71.75;39.05;;;;;;;9.80;83.66;101590.28;4970156;28;20060;-60
2021/11/16 10:58:36;;;;;;;69.97;37.80;;;;;;;10.41;81.41;101597.44;4971956;28;20104;-63
2021/11/16 11:01:15;;;;;;;69.50;36.55;;;;;;;10.87;78.34;101590.16;4971960;28;20093;-61
2021/11/16 11:03:51;;;;;;;67.50;36.05;;;;;;;11.06;76.34;101590.19;4970779;28;20055;-61
2021/11/16 11:06:21;;;;;;;70.80;36.35;;;;;;;11.27;75.52;101589.22;4973535;28;20050;-63
2021/11/16 11:08:56;;;;;;;65.22;35.55;;;;;;;11.34;74.55;101584.50;4970637;28;20059;-62
2021/11/16 11:11:35;;;;;;;70.85;37.38;;;;;;;11.13;75.00;101587.22;4973535;28;20058;-63
2021/11/16 11:14:25;;;;;;;68.57;36.42;;;;;;;11.13;75.44;101584.56;4950153;28;20051;-62
2021/11/16 11:16:56;;;;;;;72.32;38.00;;;;;;;11.37;74.43;101584.38;4974473;28;20149;-62
2021/11/16 11:19:27;;;;;;;69.50;36.03;;;;;;;11.22;74.11;101582.44;4973671;28;20058;-62
2021/11/16 11:21:58;;;;;;;68.18;36.67;;;;;;;11.04;74.58;101584.16;4974172;28;20062;-62
2021/11/16 11:29:54;;;;;;;62.08;35.50;;;;;;;11.01;74.28;101577.22;4971706;28;20055;-62
2021/11/16 11:32:29;;;;;;;66.78;37.42;;;;;;;10.67;75.64;101571.75;4973876;28;20051;-63
2021/11/16 11:34:59;;;;;;;63.67;34.35;;;;;;;10.65;75.73;101563.94;4971853;28;20511;-62
2021/11/16 11:37:35;;;;;;;65.25;35.65;;;;;;;10.46;76.09;101569.16;4971665;28;20224;-62
2021/11/16 11:40:09;;;;;;;62.63;33.28;;;;;;;10.53;76.88;101573.22;4966097;28;20078;-63
2021/11/16 11:42:39;;;;;;;62.08;33.10;;;;;;;10.37;77.03;101565.13;4958804;28;20618;-61
2021/11/16 11:45:23;;;;;;;69.00;38.80;;;;;;;10.15;78.03;101562.53;4970657;28;20058;-62
2021/11/16 11:48:01;;;;;;;66.72;36.13;;;;;;;9.94;79.35;101550.25;4969435;28;20499;-61
2021/11/16 11:50:44;;;;;;;67.35;35.72;;;;;;;9.86;80.26;101557.59;4973838;28;20077;-63
2021/11/16 11:53:23;;;;;;;65.47;35.30;;;;;;;9.85;80.08;101555.91;4978715;28;20069;-61
2021/11/16 11:56:08;;;;;;;69.65;35.33;;;;;;;9.80;80.71;101552.59;4970836;28;20043;-60
2021/11/16 11:58:39;;;;;;;66.93;34.95;;;;;;;9.69;81.72;101554.84;4971700;28;20055;-60
2021/11/16 12:01:12;;;;;;;70.10;36.72;;;;;;;9.75;81.27;101557.19;4969314;28;20054;-62